createdAt,value
2022-08-22T00:01:55.687Z,100742.56
2022-08-22T00:03:06.941Z,100729.72
2022-08-22T00:03:11.474Z,100741.59
2022-08-22T00:04:50.301Z,100737.97
2022-08-22T00:06:26.944Z,100741.22
2022-08-22T00:07:56.989Z,100740.69
2022-08-22T00:09:17.071Z,100741.66
2022-08-22T00:10:26.696Z,100739.19
2022-08-22T00:11:34.911Z,100747.91
2022-08-22T00:12:54.615Z,100753.53
2022-08-22T00:14:07.616Z,100747.56
2022-08-22T00:15:42.202Z,100746.41
2022-08-22T00:17:29.294Z,100750.03
2022-08-22T00:19:16.516Z,100747.22
2022-08-22T00:20:53.949Z,100748.06
2022-08-22T00:22:17.076Z,100750.53
2022-08-22T00:23:29.531Z,100747.28
2022-08-22T00:24:49.021Z,100744.47
2022-08-22T00:26:02.696Z,100742.16
2022-08-22T00:27:16.597Z,100751.03
2022-08-22T00:28:25.293Z,100750.34
2022-08-22T00:29:52.491Z,100743.50
2022-08-22T00:30:58.612Z,100743.81
2022-08-22T00:32:28.124Z,100749.13
2022-08-22T00:33:44.268Z,100758.72
2022-08-22T00:34:54.111Z,100751.56
2022-08-22T00:36:32.341Z,100747.44
2022-08-22T00:37:46.180Z,100750.72
2022-08-22T00:39:04.503Z,100732.22
2022-08-22T00:40:28.375Z,100748.38
2022-08-22T00:41:49.752Z,100744.34
2022-08-22T00:43:18.887Z,100742.41
2022-08-22T00:45:02.212Z,100751.72
2022-08-22T00:46:23.748Z,100745.31
2022-08-22T00:47:44.416Z,100745.72
2022-08-22T00:48:59.868Z,100741.59
2022-08-22T00:50:39.259Z,100745.31
2022-08-22T00:52:16.498Z,100746.91
2022-08-22T00:53:44.262Z,100742.56
2022-08-22T00:54:56.189Z,100742.91
2022-08-22T00:56:13.016Z,100734.13
2022-08-22T00:57:25.176Z,100737.28
2022-08-22T00:59:22.913Z,100737.28
2022-08-22T01:00:30.253Z,100743.72
2022-08-22T01:01:50.036Z,100748.53
2022-08-22T01:03:29.954Z,100748.38
2022-08-22T01:04:40.306Z,100749.53
2022-08-22T01:05:57.936Z,100745.56
2022-08-22T01:07:11.680Z,100749.97
2022-08-22T01:08:31.953Z,100754.81
2022-08-22T01:09:45.591Z,100751.56
2022-08-22T01:11:10.585Z,100762.81
2022-08-22T01:12:49.079Z,100778.56
2022-08-22T01:14:09.328Z,100771.78
2022-08-22T01:15:19.811Z,100780.59
2022-08-22T01:16:56.672Z,100780.59
2022-08-22T01:18:11.157Z,100792.56
2022-08-22T01:19:41.897Z,100780.94
2022-08-22T01:20:50.397Z,100784.97
2022-08-22T01:22:23.781Z,100778.84
2022-08-22T01:23:48.106Z,100787.88
2022-08-22T01:25:18.455Z,100789.53
2022-08-22T01:26:54.848Z,100784.78
2022-08-22T01:28:20.827Z,100783.03
2022-08-22T01:30:05.414Z,100782.31
2022-08-22T01:31:43.490Z,100774.38
2022-08-22T01:33:10.418Z,100777.19
2022-08-22T01:34:39.406Z,100768.03
2022-08-22T01:36:16.670Z,100759.97
2022-08-22T01:37:45.838Z,100753.69
2022-08-22T01:39:19.616Z,100754.47
2022-08-22T01:40:53.522Z,100758.88
2022-08-22T01:42:06.270Z,100758.38
2022-08-22T01:43:43.834Z,100773.31
2022-08-22T01:45:22.625Z,100764.16
2022-08-22T01:46:31.713Z,100767.66
2022-08-22T01:47:40.429Z,100770.16
2022-08-22T01:49:03.395Z,100766.44
2022-08-22T01:50:29.669Z,100766.53
2022-08-22T01:51:51.801Z,100757.78
2022-08-22T01:53:16.481Z,100756.59
2022-08-22T01:54:33.714Z,100764.84
2022-08-22T01:55:58.675Z,100767.59
2022-08-22T01:57:04.729Z,100768.69
2022-08-22T01:58:23.615Z,100767.09
2022-08-22T01:59:34.555Z,100758.53
2022-08-22T02:01:23.625Z,100759.50
2022-08-22T02:02:54.305Z,100762.56
2022-08-22T02:04:16.817Z,100768.19
2022-08-22T02:05:32.100Z,100759.41
2022-08-22T02:07:04.733Z,100754.41
2022-08-22T02:08:18.889Z,100744.81
2022-08-22T02:10:02.145Z,100747.38
2022-08-22T02:11:31.587Z,100754.59
2022-08-22T02:12:50.948Z,100750.56
2022-08-22T02:14:07.520Z,100757.38
2022-08-22T02:15:15.197Z,100758.34
2022-08-22T02:16:22.071Z,100754.44
2022-08-22T02:17:33.453Z,100751.84
2022-08-22T02:19:14.447Z,100757.63
2022-08-22T02:20:41.475Z,100757.19
2022-08-22T02:21:57.074Z,100753.81
2022-08-22T02:23:22.442Z,100750.28
2022-08-22T02:24:45.403Z,100758.72
2022-08-22T02:25:56.501Z,100744.72
2022-08-22T02:27:17.762Z,100750.41
2022-08-22T02:28:28.315Z,100751.88
2022-08-22T02:29:46.073Z,100746.31
2022-08-22T02:31:16.921Z,100745.44
2022-08-22T02:33:00.037Z,100747.59
2022-08-22T02:34:14.299Z,100751.63
2022-08-22T02:35:26.440Z,100755.09
2022-08-22T02:36:40.230Z,100740.00
2022-08-22T02:37:58.350Z,100747.09
2022-08-22T02:39:37.725Z,100741.91
2022-08-22T02:41:11.181Z,100744.78
2022-08-22T02:42:39.955Z,100746.38
2022-08-22T02:43:53.548Z,100748.44
2022-08-22T02:45:23.599Z,100750.41
2022-08-22T02:46:50.282Z,100758.47
2022-08-22T02:48:06.785Z,100750.41
2022-08-22T02:49:20.784Z,100752.13
2022-08-22T02:51:03.015Z,100752.97
2022-08-22T02:52:17.327Z,100743.84
2022-08-22T02:53:32.579Z,100746.59
2022-08-22T02:54:57.062Z,100746.50
2022-08-22T02:56:05.158Z,100754.56
2022-08-22T02:57:15.405Z,100749.41
2022-08-22T02:58:27.164Z,100754.56
2022-08-22T02:59:57.007Z,100753.34
2022-08-22T03:00:59.038Z,100750.84
2022-08-22T03:02:43.613Z,100755.72
2022-08-22T03:03:50.739Z,100764.09
2022-08-22T03:04:57.096Z,100768.75
2022-08-22T03:06:05.740Z,100768.75
2022-08-22T03:07:15.794Z,100769.59
2022-08-22T03:08:23.564Z,100768.25
2022-08-22T03:09:33.708Z,100774.44
2022-08-22T03:10:45.721Z,100766.66
2022-08-22T03:12:00.044Z,100764.41
2022-08-22T03:13:18.280Z,100762.09
2022-08-22T03:15:07.027Z,100760.56
2022-08-22T03:16:09.386Z,100764.97
2022-08-22T03:17:25.106Z,100762.16
2022-08-22T03:19:01.822Z,100771.91
2022-08-22T03:20:14.115Z,100765.81
2022-08-22T03:21:39.399Z,100779.13
2022-08-22T03:23:05.546Z,100771.56
2022-08-22T03:24:16.614Z,100774.19
2022-08-22T03:25:45.623Z,100775.78
2022-08-22T03:26:58.304Z,100769.31
2022-08-22T03:28:10.987Z,100767.72
2022-08-22T03:29:29.558Z,100771.75
2022-08-22T03:30:38.846Z,100778.09
2022-08-22T03:32:12.314Z,100776.59
2022-08-22T03:33:24.971Z,100774.94
2022-08-22T03:34:27.340Z,100773.34
2022-08-22T03:35:36.550Z,100776.38
2022-08-22T03:36:39.367Z,100772.34
2022-08-22T03:37:44.481Z,100784.09
2022-08-22T03:39:08.829Z,100778.47
2022-08-22T03:40:43.854Z,100771.19
2022-08-22T03:42:24.921Z,100770.75
2022-08-22T03:44:06.396Z,100774.72
2022-08-22T03:45:39.155Z,100776.25
2022-08-22T03:46:50.455Z,100775.50
2022-08-22T03:48:25.076Z,100775.16
2022-08-22T03:49:45.804Z,100771.47
2022-08-22T03:50:54.526Z,100765.13
2022-08-22T03:52:34.631Z,100773.16
2022-08-22T03:53:48.325Z,100770.84
2022-08-22T03:55:11.228Z,100773.22
2022-08-22T03:56:44.555Z,100772.69
2022-08-22T03:57:56.842Z,100775.03
2022-08-22T03:59:11.752Z,100772.97
2022-08-22T04:00:18.518Z,100773.16
2022-08-22T04:01:23.040Z,100784.22
2022-08-22T04:02:42.915Z,100785.00
2022-08-22T04:04:04.071Z,100778.41
2022-08-22T04:05:42.931Z,100786.56
2022-08-22T04:07:03.881Z,100779.00
2022-08-22T04:08:43.947Z,100780.56
2022-08-22T04:10:11.508Z,100777.38
2022-08-22T04:11:35.745Z,100770.69
2022-08-22T04:12:49.823Z,100780.03
2022-08-22T04:13:58.024Z,100785.31
2022-08-22T04:15:33.855Z,100785.31
2022-08-22T04:16:41.763Z,100785.69
2022-08-22T04:17:47.168Z,100789.03
2022-08-22T04:19:19.906Z,100801.53
2022-08-22T04:21:00.964Z,100789.91
2022-08-22T04:22:18.967Z,100789.72
2022-08-22T04:23:35.878Z,100789.81
2022-08-22T04:25:04.657Z,100783.03
2022-08-22T04:26:25.437Z,100788.16
2022-08-22T04:27:49.919Z,100781.78
2022-08-22T04:29:03.124Z,100780.31
2022-08-22T04:30:20.449Z,100781.09
2022-08-22T04:31:29.263Z,100781.09
2022-08-22T04:32:41.387Z,100771.09
2022-08-22T04:34:01.437Z,100776.88
2022-08-22T04:35:08.120Z,100778.19
2022-08-22T04:36:28.545Z,100774.38
2022-08-22T04:38:02.558Z,100773.84
2022-08-22T04:39:19.680Z,100791.41
2022-08-22T04:40:43.224Z,100784.34
2022-08-22T04:41:51.911Z,100778.03
2022-08-22T04:42:59.944Z,100775.06
2022-08-22T04:44:11.710Z,100783.56
2022-08-22T04:45:24.477Z,100781.09
2022-08-22T04:47:01.666Z,100782.66
2022-08-22T04:48:28.294Z,100787.88
2022-08-22T04:49:38.771Z,100780.25
2022-08-22T04:50:58.278Z,100780.69
2022-08-22T04:52:07.790Z,100786.34
2022-08-22T04:53:20.709Z,100783.38
2022-08-22T04:54:54.721Z,100787.06
2022-08-22T04:56:11.791Z,100777.66
2022-08-22T04:57:38.476Z,100777.56
2022-08-22T04:59:03.098Z,100785.16
2022-08-22T05:00:08.772Z,100781.31
2022-08-22T05:01:48.922Z,100781.78
2022-08-22T05:02:56.330Z,100782.47
2022-08-22T05:04:08.752Z,100775.91
2022-08-22T05:05:18.455Z,100777.25
2022-08-22T05:06:23.684Z,100779.44
2022-08-22T05:07:35.955Z,100780.88
2022-08-22T05:08:40.888Z,100781.09
2022-08-22T05:09:47.826Z,100782.03
2022-08-22T05:10:52.133Z,100781.00
2022-08-22T05:11:58.315Z,100779.97
2022-08-22T05:13:24.879Z,100783.03
2022-08-22T05:14:43.457Z,100785.72
2022-08-22T05:15:52.595Z,100777.94
2022-08-22T05:16:58.234Z,100776.81
2022-08-22T05:18:09.204Z,100767.09
2022-08-22T05:19:27.058Z,100771.63
2022-08-22T05:20:32.278Z,100765.16
2022-08-22T05:21:40.671Z,100766.66
2022-08-22T05:22:47.142Z,100760.31
2022-08-22T05:23:58.836Z,100764.25
2022-08-22T05:25:06.018Z,100764.16
2022-08-22T05:26:11.199Z,100756.47
2022-08-22T05:27:18.934Z,100762.09
2022-08-22T05:28:44.021Z,100767.72
2022-08-22T05:29:49.402Z,100767.16
2022-08-22T05:30:52.237Z,100765.34
2022-08-22T05:32:22.177Z,100763.50
2022-08-22T05:33:30.471Z,100760.72
2022-08-22T05:34:39.075Z,100763.53
2022-08-22T05:35:55.842Z,100760.56
2022-08-22T05:37:15.753Z,100763.81
2022-08-22T05:38:23.798Z,100760.91
2022-08-22T05:39:29.155Z,100767.00
2022-08-22T05:40:34.378Z,100775.56
2022-08-22T05:41:41.366Z,100771.97
2022-08-22T05:42:44.819Z,100767.56
2022-08-22T05:43:50.683Z,100771.91
2022-08-22T05:44:54.360Z,100771.56
2022-08-22T05:45:58.752Z,100764.22
2022-08-22T05:47:02.793Z,100768.50
2022-08-22T05:48:20.875Z,100771.69
2022-08-22T05:49:34.706Z,100767.34
2022-08-22T05:50:39.644Z,100768.59
2022-08-22T05:52:28.377Z,100767.06
2022-08-22T05:53:40.333Z,100769.44
2022-08-22T05:55:05.561Z,100766.69
2022-08-22T05:56:36.767Z,100765.41
2022-08-22T05:57:43.589Z,100771.53
2022-08-22T05:59:17.372Z,100775.31
2022-08-22T06:00:22.571Z,100769.69
2022-08-22T06:01:56.282Z,100771.75
2022-08-22T06:03:08.376Z,100779.28
2022-08-22T06:04:27.852Z,100782.94
2022-08-22T06:05:36.194Z,100772.81
2022-08-22T06:06:46.887Z,100773.19
2022-08-22T06:07:51.576Z,100774.59
2022-08-22T06:09:06.007Z,100768.28
2022-08-22T06:10:23.301Z,100777.47
2022-08-22T06:11:34.975Z,100782.91
2022-08-22T06:12:43.462Z,100774.75
2022-08-22T06:14:05.011Z,100777.25
2022-08-22T06:15:39.734Z,100775.63
2022-08-22T06:16:47.488Z,100768.13
2022-08-22T06:17:57.970Z,100773.91
2022-08-22T06:19:00.733Z,100774.50
2022-08-22T06:20:08.311Z,100772.75
2022-08-22T06:21:18.549Z,100781.66
2022-08-22T06:22:34.856Z,100784.06
2022-08-22T06:23:37.479Z,100779.00
2022-08-22T06:24:40.954Z,100782.84
2022-08-22T06:25:47.178Z,100784.31
2022-08-22T06:26:52.860Z,100787.84
2022-08-22T06:27:57.791Z,100782.50
2022-08-22T06:29:01.910Z,100786.59
2022-08-22T06:30:05.064Z,100784.81
2022-08-22T06:31:15.133Z,100782.88
2022-08-22T06:32:52.850Z,100800.47
2022-08-22T06:33:55.455Z,100790.38
2022-08-22T06:35:04.468Z,100796.28
2022-08-22T06:36:33.270Z,100787.97
2022-08-22T06:37:41.782Z,100789.81
2022-08-22T06:39:03.006Z,100784.09
2022-08-22T06:40:08.637Z,100781.34
2022-08-22T06:41:11.168Z,100791.84
2022-08-22T06:42:26.088Z,100773.28
2022-08-22T06:43:34.302Z,100776.22
2022-08-22T06:44:41.674Z,100784.28
2022-08-22T06:45:47.239Z,100783.22
2022-08-22T06:46:53.137Z,100769.19
2022-08-22T06:48:00.634Z,100776.06
2022-08-22T06:49:05.907Z,100773.72
2022-08-22T06:50:19.556Z,100773.94
2022-08-22T06:51:25.166Z,100771.38
2022-08-22T06:52:32.034Z,100781.13
2022-08-22T06:53:48.138Z,100778.00
2022-08-22T06:55:13.784Z,100794.50
2022-08-22T06:56:25.754Z,100782.72
2022-08-22T06:57:36.125Z,100786.03
2022-08-22T06:58:43.395Z,100796.31
2022-08-22T06:59:45.678Z,100799.13
2022-08-22T07:01:04.037Z,100792.50
2022-08-22T07:02:27.297Z,100789.13
2022-08-22T07:03:36.494Z,100790.25
2022-08-22T07:04:40.102Z,100789.81
2022-08-22T07:05:43.539Z,100781.00
2022-08-22T07:06:50.974Z,100776.13
2022-08-22T07:07:53.303Z,100784.53
2022-08-22T07:08:56.831Z,100789.44
2022-08-22T07:09:59.077Z,100789.25
2022-08-22T07:11:15.762Z,100791.53
2022-08-22T07:12:20.794Z,100796.66
2022-08-22T07:13:25.374Z,100795.41
2022-08-22T07:14:39.771Z,100798.44
2022-08-22T07:15:43.022Z,100800.63
2022-08-22T07:16:52.378Z,100793.97
2022-08-22T07:18:00.067Z,100797.84
2022-08-22T07:19:02.438Z,100796.94
2022-08-22T07:20:27.068Z,100807.81
2022-08-22T07:21:41.466Z,100805.53
2022-08-22T07:22:56.529Z,100809.44
2022-08-22T07:24:01.610Z,100805.47
2022-08-22T07:25:13.585Z,100810.38
2022-08-22T07:26:38.920Z,100801.88
2022-08-22T07:28:00.529Z,100807.84
2022-08-22T07:29:19.443Z,100802.13
2022-08-22T07:30:28.976Z,100801.94
2022-08-22T07:31:51.394Z,100798.78
2022-08-22T07:33:26.017Z,100801.69
2022-08-22T07:34:42.843Z,100800.19
2022-08-22T07:35:53.882Z,100801.59
2022-08-22T07:37:07.683Z,100804.06
2022-08-22T07:38:21.669Z,100802.00
2022-08-22T07:39:42.242Z,100804.56
2022-08-22T07:40:59.000Z,100805.34
2022-08-22T07:42:12.058Z,100797.97
2022-08-22T07:43:17.340Z,100802.13
2022-08-22T07:44:24.271Z,100800.97
2022-08-22T07:45:40.559Z,100798.31
2022-08-22T07:46:59.059Z,100787.34
2022-08-22T07:48:26.434Z,100795.44
2022-08-22T07:49:38.491Z,100800.13
2022-08-22T07:51:05.908Z,100798.28
2022-08-22T07:52:11.015Z,100807.72
2022-08-22T07:53:18.683Z,100790.56
2022-08-22T07:54:48.911Z,100800.72
2022-08-22T07:55:53.923Z,100803.56
2022-08-22T07:57:07.315Z,100800.72
2022-08-22T07:58:13.620Z,100789.03
2022-08-22T07:59:20.169Z,100787.25
2022-08-22T08:00:24.572Z,100803.22
2022-08-22T08:01:27.428Z,100794.19
2022-08-22T08:02:30.172Z,100783.53
2022-08-22T08:03:32.459Z,100789.03
2022-08-22T08:04:40.170Z,100798.34
2022-08-22T08:05:45.044Z,100796.72
2022-08-22T08:06:52.796Z,100797.50
2022-08-22T08:07:58.258Z,100792.03
2022-08-22T08:09:01.587Z,100795.78
2022-08-22T08:10:12.463Z,100801.44
2022-08-22T08:11:22.199Z,100792.75
2022-08-22T08:12:35.662Z,100793.44
2022-08-22T08:13:46.646Z,100796.72
2022-08-22T08:14:53.730Z,100789.00
2022-08-22T08:15:56.838Z,100790.50
2022-08-22T08:17:31.400Z,100787.09
2022-08-22T08:18:36.943Z,100787.25
2022-08-22T08:19:41.602Z,100785.44
2022-08-22T08:20:44.091Z,100783.47
2022-08-22T08:21:53.760Z,100795.84
2022-08-22T08:22:58.930Z,100779.63
2022-08-22T08:24:02.413Z,100787.63
2022-08-22T08:25:06.828Z,100789.53
2022-08-22T08:26:13.612Z,100780.63
2022-08-22T08:27:50.413Z,100781.03
2022-08-22T08:28:58.702Z,100790.53
2022-08-22T08:30:28.003Z,100787.81
2022-08-22T08:31:39.847Z,100788.97
2022-08-22T08:32:57.366Z,100777.34
2022-08-22T08:34:23.573Z,100783.81
2022-08-22T08:35:30.076Z,100777.81
2022-08-22T08:37:05.615Z,100784.69
2022-08-22T08:38:20.248Z,100788.50
2022-08-22T08:39:22.326Z,100774.25
2022-08-22T08:40:45.285Z,100787.19
2022-08-22T08:42:16.420Z,100783.75
2022-08-22T08:43:46.371Z,100786.72
2022-08-22T08:45:24.620Z,100774.84
2022-08-22T08:47:12.711Z,100781.03
2022-08-22T08:48:47.626Z,100772.22
2022-08-22T08:50:11.176Z,100776.41
2022-08-22T08:51:13.213Z,100777.81
2022-08-22T08:52:26.476Z,100775.56
2022-08-22T08:54:16.310Z,100781.00
2022-08-22T08:55:27.704Z,100781.69
2022-08-22T08:56:54.441Z,100778.56
2022-08-22T08:58:06.992Z,100777.31
2022-08-22T08:59:44.839Z,100788.47
2022-08-22T09:00:59.327Z,100779.63
2022-08-22T09:02:45.775Z,100784.00
2022-08-22T09:04:16.307Z,100782.16
2022-08-22T09:05:33.105Z,100784.63
2022-08-22T09:09:11.236Z,100789.22
2022-08-22T09:10:29.516Z,100789.31
2022-08-22T09:12:06.427Z,100781.44
2022-08-22T09:13:40.811Z,100786.41
2022-08-22T09:15:11.878Z,100783.16
2022-08-22T09:16:51.265Z,100782.88
2022-08-22T09:18:00.430Z,100788.66
2022-08-22T09:19:11.516Z,100788.38
2022-08-22T09:20:35.599Z,100781.59
2022-08-22T09:22:06.164Z,100796.88
2022-08-22T09:23:35.908Z,100787.50
2022-08-22T09:24:52.663Z,100788.03
2022-08-22T09:26:11.369Z,100793.28
2022-08-22T09:27:17.591Z,100788.88
2022-08-22T09:28:34.600Z,100787.44
2022-08-22T09:30:06.010Z,100796.66
2022-08-22T09:31:47.725Z,100792.66
2022-08-22T09:33:02.847Z,100789.38
2022-08-22T09:34:23.880Z,100790.44
2022-08-22T09:35:51.296Z,100789.53
2022-08-22T09:37:08.556Z,100786.13
2022-08-22T09:38:41.790Z,100794.69
2022-08-22T09:40:17.495Z,100796.63
2022-08-22T09:41:40.217Z,100796.44
2022-08-22T09:42:55.285Z,100807.56
2022-08-22T09:44:04.700Z,100805.69
2022-08-22T09:45:07.340Z,100794.81
2022-08-22T09:46:16.694Z,100802.88
2022-08-22T09:47:32.754Z,100791.88
2022-08-22T09:48:56.699Z,100781.81
2022-08-22T09:50:22.202Z,100792.13
2022-08-22T09:52:15.432Z,100790.47
2022-08-22T09:53:41.584Z,100791.56
2022-08-22T09:55:03.099Z,100784.13
2022-08-22T09:56:42.242Z,100788.25
2022-08-22T09:58:00.126Z,100775.88
2022-08-22T09:59:22.972Z,100785.09
2022-08-22T10:00:48.979Z,100784.97
2022-08-22T10:01:59.715Z,100785.66
2022-08-22T10:03:28.082Z,100776.53
2022-08-22T10:04:59.662Z,100780.25
2022-08-22T10:06:12.986Z,100778.88
2022-08-22T10:07:23.766Z,100780.97
2022-08-22T10:08:48.766Z,100786.84
2022-08-22T10:09:59.615Z,100785.72
2022-08-22T10:11:50.558Z,100776.94
2022-08-22T10:13:18.252Z,100780.97
2022-08-22T10:14:28.859Z,100778.81
2022-08-22T10:15:47.452Z,100773.84
2022-08-22T10:17:21.804Z,100779.69
2022-08-22T10:19:02.822Z,100783.34
2022-08-22T10:20:25.167Z,100782.06
2022-08-22T10:21:51.393Z,100786.63
2022-08-22T10:23:18.130Z,100774.69
2022-08-22T10:25:14.235Z,100773.38
2022-08-22T10:26:36.505Z,100780.53
2022-08-22T10:27:53.437Z,100784.50
2022-08-22T10:29:07.838Z,100784.69
2022-08-22T10:30:21.952Z,100781.00
2022-08-22T10:31:45.017Z,100788.69
2022-08-22T10:33:09.175Z,100779.75
2022-08-22T10:34:24.636Z,100779.19
2022-08-22T10:35:35.403Z,100789.78
2022-08-22T10:36:52.877Z,100772.41
2022-08-22T10:38:15.733Z,100777.69
2022-08-22T10:39:25.731Z,100772.13
2022-08-22T10:40:59.877Z,100771.31
2022-08-22T10:42:34.978Z,100769.81
2022-08-22T10:43:57.470Z,100772.69
2022-08-22T10:45:36.135Z,100766.19
2022-08-22T10:46:48.731Z,100770.97
2022-08-22T10:47:53.886Z,100768.25
2022-08-22T10:49:00.712Z,100770.34
2022-08-22T10:50:20.611Z,100775.19
2022-08-22T10:51:47.566Z,100774.41
2022-08-22T10:53:16.486Z,100774.13
2022-08-22T10:54:45.703Z,100769.06
2022-08-22T10:55:51.041Z,100775.56
2022-08-22T10:57:00.289Z,100777.00
2022-08-22T10:58:13.075Z,100773.28
2022-08-22T10:59:34.158Z,100768.41
2022-08-22T11:00:49.803Z,100775.97
2022-08-22T11:02:08.375Z,100768.75
2022-08-22T11:03:28.584Z,100781.81
2022-08-22T11:04:49.393Z,100768.63
2022-08-22T11:05:54.824Z,100769.59
2022-08-22T11:07:09.360Z,100764.75
2022-08-22T11:08:24.119Z,100764.81
2022-08-22T11:09:49.914Z,100765.91
2022-08-22T11:11:25.441Z,100773.53
2022-08-22T11:12:41.607Z,100768.25
2022-08-22T11:13:46.952Z,100763.25
2022-08-22T11:15:03.105Z,100776.69
2022-08-22T11:16:36.615Z,100762.91
2022-08-22T11:17:58.211Z,100757.69
2022-08-22T11:19:15.106Z,100767.13
2022-08-22T11:20:46.631Z,100770.31
2022-08-22T11:22:14.283Z,100764.81
2022-08-22T11:23:38.183Z,100765.66
2022-08-22T11:25:29.262Z,100768.25
2022-08-22T11:27:07.470Z,100756.13
2022-08-22T11:28:43.831Z,100768.81
2022-08-22T11:30:04.004Z,100758.69
2022-08-22T11:31:24.508Z,100750.97
2022-08-22T11:32:44.355Z,100755.47
2022-08-22T11:34:09.640Z,100756.16
2022-08-22T11:35:26.358Z,100754.75
2022-08-22T11:36:53.376Z,100757.53
2022-08-22T11:38:11.089Z,100758.81
2022-08-22T11:39:55.027Z,100754.56
2022-08-22T11:40:57.056Z,100746.50
2022-08-22T11:42:05.583Z,100748.25
2022-08-22T11:43:40.155Z,100753.97
2022-08-22T11:44:51.520Z,100756.75
2022-08-22T11:45:58.392Z,100755.66
2022-08-22T11:47:02.895Z,100751.09
2022-08-22T11:48:16.813Z,100747.19
2022-08-22T11:49:43.970Z,100754.84
2022-08-22T11:50:58.948Z,100752.91
2022-08-22T11:52:28.986Z,100755.53
2022-08-22T11:53:50.312Z,100753.59
2022-08-22T11:55:02.799Z,100755.97
2022-08-22T11:56:41.495Z,100756.97
2022-08-22T11:57:46.326Z,100745.34
2022-08-22T11:58:53.018Z,100749.25
2022-08-22T12:00:11.369Z,100750.69
2022-08-22T12:01:26.972Z,100754.38
2022-08-22T12:02:42.300Z,100751.31
2022-08-22T12:03:58.195Z,100746.75
2022-08-22T12:05:26.743Z,100739.69
2022-08-22T12:06:56.770Z,100746.13
2022-08-22T12:08:11.690Z,100745.13
2022-08-22T12:09:23.098Z,100745.47
2022-08-22T12:10:32.466Z,100743.13
2022-08-22T12:11:46.899Z,100752.81
2022-08-22T12:12:53.758Z,100755.28
2022-08-22T12:14:19.665Z,100747.25
2022-08-22T12:15:33.460Z,100746.19
2022-08-22T12:17:02.223Z,100738.38
2022-08-22T12:18:25.106Z,100740.41
2022-08-22T12:20:05.762Z,100743.03
2022-08-22T12:21:21.887Z,100742.69
2022-08-22T12:22:36.260Z,100746.69
2022-08-22T12:23:51.074Z,100741.97
2022-08-22T12:25:07.812Z,100744.53
2022-08-22T12:26:18.000Z,100736.13
2022-08-22T12:27:35.957Z,100731.41
2022-08-22T12:28:55.950Z,100735.41
2022-08-22T12:30:05.251Z,100732.53
2022-08-22T12:31:44.285Z,100749.59
2022-08-22T12:33:10.744Z,100741.53
2022-08-22T12:34:23.823Z,100741.34
2022-08-22T12:35:38.633Z,100735.84
2022-08-22T12:37:03.627Z,100743.97
2022-08-22T12:38:28.040Z,100731.81
2022-08-22T12:39:40.374Z,100733.41
2022-08-22T12:40:43.603Z,100745.78
2022-08-22T12:42:06.422Z,100751.91
2022-08-22T12:43:42.352Z,100742.53
2022-08-22T12:45:06.145Z,100747.28
2022-08-22T12:46:18.727Z,100740.94
2022-08-22T12:48:17.994Z,100736.38
2022-08-22T12:49:56.886Z,100736.97
2022-08-22T12:51:29.480Z,100742.69
2022-08-22T12:53:21.112Z,100740.81
2022-08-22T12:54:28.015Z,100740.41
2022-08-22T12:55:38.844Z,100742.97
2022-08-22T12:57:02.068Z,100757.13
2022-08-22T12:58:15.892Z,100747.69
2022-08-22T12:59:45.732Z,100740.13
2022-08-22T13:00:49.754Z,100748.53
2022-08-22T13:01:59.748Z,100742.38
2022-08-22T13:03:50.878Z,100752.84
2022-08-22T13:04:58.710Z,100741.88
2022-08-22T13:06:42.769Z,100738.25
2022-08-22T13:08:04.107Z,100737.28
2022-08-22T13:09:28.779Z,100735.19
2022-08-22T13:10:44.918Z,100742.75
2022-08-22T13:11:52.231Z,100741.84
2022-08-22T13:12:58.936Z,100737.69
2022-08-22T13:14:02.616Z,100744.38
2022-08-22T13:15:36.827Z,100737.03
2022-08-22T13:16:48.901Z,100736.13
2022-08-22T13:17:54.993Z,100732.53
2022-08-22T13:19:07.686Z,100735.19
2022-08-22T13:20:22.387Z,100734.47
2022-08-22T13:21:36.359Z,100739.97
2022-08-22T13:22:45.853Z,100738.19
2022-08-22T13:23:56.181Z,100739.13
2022-08-22T13:25:16.381Z,100740.69
2022-08-22T13:26:33.801Z,100737.13
2022-08-22T13:28:02.210Z,100741.75
2022-08-22T13:29:25.811Z,100741.47
2022-08-22T13:30:41.616Z,100736.25
2022-08-22T13:31:55.131Z,100738.91
2022-08-22T13:33:08.515Z,100736.56
2022-08-22T13:34:29.871Z,100737.19
2022-08-22T13:35:45.452Z,100744.47
2022-08-22T13:36:58.782Z,100738.69
2022-08-22T13:38:12.887Z,100751.97
2022-08-22T13:39:15.253Z,100751.41
2022-08-22T13:40:27.256Z,100738.03
2022-08-22T13:41:44.212Z,100742.38
2022-08-22T13:42:50.607Z,100736.69
2022-08-22T13:44:08.904Z,100746.06
2022-08-22T13:45:21.147Z,100732.84
2022-08-22T13:46:35.563Z,100729.97
2022-08-22T13:47:49.379Z,100731.06
2022-08-22T13:49:00.699Z,100731.09
2022-08-22T13:50:09.229Z,100734.41
2022-08-22T13:51:46.578Z,100730.03
2022-08-22T13:53:15.607Z,100731.97
2022-08-22T13:54:52.061Z,100735.53
2022-08-22T13:56:05.470Z,100742.69
2022-08-22T13:57:18.757Z,100733.53
2022-08-22T13:58:44.881Z,100737.19
2022-08-22T14:00:10.759Z,100724.69
2022-08-22T14:01:25.273Z,100733.97
2022-08-22T14:02:47.976Z,100729.53
2022-08-22T14:04:00.781Z,100719.59
2022-08-22T14:05:10.197Z,100716.25
2022-08-22T14:06:41.519Z,100724.53
2022-08-22T14:07:55.181Z,100725.13
2022-08-22T14:09:45.214Z,100728.69
2022-08-22T14:11:03.511Z,100718.13
2022-08-22T14:12:21.200Z,100721.19
2022-08-22T14:14:00.337Z,100716.19
2022-08-22T14:15:07.036Z,100721.59
2022-08-22T14:16:34.904Z,100721.91
2022-08-22T14:17:43.977Z,100716.66
2022-08-22T14:19:59.654Z,100726.91
2022-08-22T14:20:47.704Z,100731.59
2022-08-22T14:22:00.159Z,100719.41
2022-08-22T14:23:29.395Z,100720.59
2022-08-22T14:24:45.573Z,100727.09
2022-08-22T14:25:51.827Z,100721.41
2022-08-22T14:26:58.748Z,100726.09
2022-08-22T14:28:06.493Z,100731.03
2022-08-22T14:29:18.104Z,100722.75
2022-08-22T14:30:26.562Z,100734.97
2022-08-22T14:31:30.942Z,100722.25
2022-08-22T14:32:45.359Z,100719.41
2022-08-22T14:33:59.045Z,100728.47
2022-08-22T14:35:21.450Z,100731.38
2022-08-22T14:36:38.831Z,100726.91
2022-08-22T14:37:44.548Z,100722.56
2022-08-22T14:38:53.264Z,100733.97
2022-08-22T14:39:58.486Z,100725.19
2022-08-22T14:41:22.744Z,100729.53
2022-08-22T14:42:44.438Z,100726.09
2022-08-22T14:43:57.404Z,100728.25
2022-08-22T14:45:11.735Z,100727.97
2022-08-22T14:46:21.776Z,100719.97
2022-08-22T14:47:55.275Z,100727.03
2022-08-22T14:49:07.153Z,100729.03
2022-08-22T14:50:37.448Z,100724.25
2022-08-22T14:51:50.708Z,100719.81
2022-08-22T14:53:05.008Z,100722.56
2022-08-22T14:54:21.294Z,100723.06
2022-08-22T14:55:27.295Z,100723.06
2022-08-22T14:56:37.314Z,100719.03
2022-08-22T14:57:50.944Z,100715.91
2022-08-22T14:59:08.497Z,100719.28